Terminal Aerodrome Forecast
Issued by NWS Bismarck, ND

Home | Current Version | Previous Version | Graphics & Text | Print | Product List | Glossary On
Versions: 1 2 3 4 5 6 7 8 9 10 11 12 13 14 15 16 17 18 19 20 21 22 23 24 25
000
FTUS43 KBIS 220500
TAFISN
TAF
KISN 220529Z 2206/2306 23009KT P6SM SCT150
     FM221200 18007KT P6SM BKN080
     FM221800 21010KT P6SM VCSH SCT050 SCT080 BKN150
     FM230300 25010KT P6SM VCSH SCT030 BKN040 OVC080=

USA.gov is the U.S. government's official web portal to all federal, state and local government web resources and services.